sensor_id;sensor_type;location;lat;lon;timestamp;P1;durP1;ratioP1;P2;durP2;ratioP2
22644;SDS011;11489;50.834;6.752;2023-03-01T00:01:31;13.20;;;7.60;;
22644;SDS011;11489;50.834;6.752;2023-03-01T00:03:57;18.77;;;8.37;;
22644;SDS011;11489;50.834;6.752;2023-03-01T00:06:25;15.30;;;8.33;;
22644;SDS011;11489;50.834;6.752;2023-03-01T00:08:51;15.93;;;8.33;;
22644;SDS011;11489;50.834;6.752;2023-03-01T00:11:18;15.87;;;8.50;;
22644;SDS011;11489;50.834;6.752;2023-03-01T00:13:44;19.20;;;8.37;;
22644;SDS011;11489;50.834;6.752;2023-03-01T00:16:12;16.40;;;8.90;;
22644;SDS011;11489;50.834;6.752;2023-03-01T00:18:49;17.00;;;8.03;;
22644;SDS011;11489;50.834;6.752;2023-03-01T00:21:16;16.03;;;8.20;;
22644;SDS011;11489;50.834;6.752;2023-03-01T00:23:42;14.77;;;7.53;;
22644;SDS011;11489;50.834;6.752;2023-03-01T00:26:09;14.53;;;7.80;;
22644;SDS011;11489;50.834;6.752;2023-03-01T00:28:37;13.70;;;7.97;;
22644;SDS011;11489;50.834;6.752;2023-03-01T00:31:04;15.77;;;7.67;;
22644;SDS011;11489;50.834;6.752;2023-03-01T00:33:35;13.60;;;7.33;;
22644;SDS011;11489;50.834;6.752;2023-03-01T00:36:01;17.03;;;8.27;;
22644;SDS011;11489;50.834;6.752;2023-03-01T00:38:27;19.97;;;8.90;;
22644;SDS011;11489;50.834;6.752;2023-03-01T00:40:53;23.20;;;10.90;;
22644;SDS011;11489;50.834;6.752;2023-03-01T00:43:19;27.70;;;13.63;;
22644;SDS011;11489;50.834;6.752;2023-03-01T00:45:45;30.93;;;12.73;;
22644;SDS011;11489;50.834;6.752;2023-03-01T00:48:10;29.00;;;13.40;;
22644;SDS011;11489;50.834;6.752;2023-03-01T00:50:36;22.93;;;10.90;;
22644;SDS011;11489;50.834;6.752;2023-03-01T00:53:02;20.40;;;10.03;;
22644;SDS011;11489;50.834;6.752;2023-03-01T00:55:28;20.03;;;8.83;;
22644;SDS011;11489;50.834;6.752;2023-03-01T00:57:53;19.70;;;8.50;;
22644;SDS011;11489;50.834;6.752;2023-03-01T01:00:19;15.33;;;7.77;;
22644;SDS011;11489;50.834;6.752;2023-03-01T01:02:46;15.60;;;7.87;;
22644;SDS011;11489;50.834;6.752;2023-03-01T01:05:12;15.23;;;7.60;;
22644;SDS011;11489;50.834;6.752;2023-03-01T01:07:37;15.50;;;7.80;;
22644;SDS011;11489;50.834;6.752;2023-03-01T01:10:03;16.87;;;8.43;;
22644;SDS011;11489;50.834;6.752;2023-03-01T01:12:29;15.57;;;8.50;;
22644;SDS011;11489;50.834;6.752;2023-03-01T01:14:55;19.83;;;8.70;;
22644;SDS011;11489;50.834;6.752;2023-03-01T01:17:21;15.13;;;7.50;;
22644;SDS011;11489;50.834;6.752;2023-03-01T01:19:47;16.90;;;7.80;;
22644;SDS011;11489;50.834;6.752;2023-03-01T01:22:12;17.20;;;8.10;;
22644;SDS011;11489;50.834;6.752;2023-03-01T01:24:38;14.93;;;8.03;;
22644;SDS011;11489;50.834;6.752;2023-03-01T01:27:03;13.40;;;7.40;;
22644;SDS011;11489;50.834;6.752;2023-03-01T01:29:29;15.80;;;7.83;;
22644;SDS011;11489;50.834;6.752;2023-03-01T01:31:55;14.10;;;7.67;;
22644;SDS011;11489;50.834;6.752;2023-03-01T01:34:21;15.33;;;8.10;;
22644;SDS011;11489;50.834;6.752;2023-03-01T01:36:48;17.73;;;7.70;;
22644;SDS011;11489;50.834;6.752;2023-03-01T01:39:14;13.53;;;7.57;;
22644;SDS011;11489;50.834;6.752;2023-03-01T01:41:41;14.47;;;7.47;;
22644;SDS011;11489;50.834;6.752;2023-03-01T01:47:20;15.07;;;7.50;;
22644;SDS011;11489;50.834;6.752;2023-03-01T01:49:30;13.57;;;6.70;;
22644;SDS011;11489;50.834;6.752;2023-03-01T01:52:14;13.00;;;6.60;;
22644;SDS011;11489;50.834;6.752;2023-03-01T01:54:53;12.33;;;6.90;;
22644;SDS011;11489;50.834;6.752;2023-03-01T01:57:35;12.33;;;6.30;;
22644;SDS011;11489;50.834;6.752;2023-03-01T02:00:15;13.87;;;6.83;;
22644;SDS011;11489;50.834;6.752;2023-03-01T02:02:43;13.17;;;7.20;;
22644;SDS011;11489;50.834;6.752;2023-03-01T02:05:15;12.70;;;6.97;;
22644;SDS011;11489;50.834;6.752;2023-03-01T02:07:57;12.17;;;6.73;;
22644;SDS011;11489;50.834;6.752;2023-03-01T02:10:24;12.80;;;7.07;;
22644;SDS011;11489;50.834;6.752;2023-03-01T02:12:51;13.27;;;7.17;;
22644;SDS011;11489;50.834;6.752;2023-03-01T02:15:18;12.57;;;7.80;;
22644;SDS011;11489;50.834;6.752;2023-03-01T02:17:44;14.53;;;7.43;;
22644;SDS011;11489;50.834;6.752;2023-03-01T02:22:39;13.57;;;7.57;;
22644;SDS011;11489;50.834;6.752;2023-03-01T02:25:07;13.70;;;7.20;;
22644;SDS011;11489;50.834;6.752;2023-03-01T02:30:26;13.27;;;7.37;;
22644;SDS011;11489;50.834;6.752;2023-03-01T02:32:54;14.10;;;6.77;;
22644;SDS011;11489;50.834;6.752;2023-03-01T02:35:33;11.57;;;6.17;;
22644;SDS011;11489;50.834;6.752;2023-03-01T02:38:02;13.43;;;6.80;;
22644;SDS011;11489;50.834;6.752;2023-03-01T02:40:31;13.03;;;6.37;;
22644;SDS011;11489;50.834;6.752;2023-03-01T02:42:59;12.10;;;6.13;;
22644;SDS011;11489;50.834;6.752;2023-03-01T02:45:25;12.63;;;6.77;;
22644;SDS011;11489;50.834;6.752;2023-03-01T02:47:55;11.60;;;6.20;;
22644;SDS011;11489;50.834;6.752;2023-03-01T02:55:35;10.23;;;5.73;;
22644;SDS011;11489;50.834;6.752;2023-03-01T02:58:02;11.80;;;6.63;;
22644;SDS011;11489;50.834;6.752;2023-03-01T03:00:29;12.57;;;6.63;;
22644;SDS011;11489;50.834;6.752;2023-03-01T03:03:00;12.30;;;7.00;;
22644;SDS011;11489;50.834;6.752;2023-03-01T03:05:27;13.87;;;7.03;;
22644;SDS011;11489;50.834;6.752;2023-03-01T03:07:55;11.60;;;6.27;;
22644;SDS011;11489;50.834;6.752;2023-03-01T03:10:23;12.17;;;6.57;;
22644;SDS011;11489;50.834;6.752;2023-03-01T03:13:00;12.37;;;6.73;;
22644;SDS011;11489;50.834;6.752;2023-03-01T03:15:32;13.13;;;6.50;;
22644;SDS011;11489;50.834;6.752;2023-03-01T03:18:01;13.13;;;7.33;;
22644;SDS011;11489;50.834;6.752;2023-03-01T03:20:28;13.13;;;7.30;;
22644;SDS011;11489;50.834;6.752;2023-03-01T03:22:54;12.47;;;7.10;;
22644;SDS011;11489;50.834;6.752;2023-03-01T03:25:21;13.73;;;7.00;;
22644;SDS011;11489;50.834;6.752;2023-03-01T03:27:48;14.60;;;7.17;;
22644;SDS011;11489;50.834;6.752;2023-03-01T03:30:16;13.87;;;6.17;;
22644;SDS011;11489;50.834;6.752;2023-03-01T03:32:44;11.17;;;6.53;;
22644;SDS011;11489;50.834;6.752;2023-03-01T03:35:18;13.67;;;6.70;;
22644;SDS011;11489;50.834;6.752;2023-03-01T03:37:55;12.83;;;6.67;;
22644;SDS011;11489;50.834;6.752;2023-03-01T03:40:29;14.53;;;6.83;;
22644;SDS011;11489;50.834;6.752;2023-03-01T03:43:00;12.83;;;7.17;;
22644;SDS011;11489;50.834;6.752;2023-03-01T03:45:26;11.40;;;6.50;;
22644;SDS011;11489;50.834;6.752;2023-03-01T03:47:52;13.97;;;7.27;;
22644;SDS011;11489;50.834;6.752;2023-03-01T03:50:17;13.23;;;6.70;;
22644;SDS011;11489;50.834;6.752;2023-03-01T03:52:43;13.07;;;6.37;;
22644;SDS011;11489;50.834;6.752;2023-03-01T03:55:10;12.80;;;7.30;;
22644;SDS011;11489;50.834;6.752;2023-03-01T03:57:37;11.93;;;7.10;;
22644;SDS011;11489;50.834;6.752;2023-03-01T04:00:04;13.17;;;7.60;;
22644;SDS011;11489;50.834;6.752;2023-03-01T04:02:43;13.30;;;7.10;;
22644;SDS011;11489;50.834;6.752;2023-03-01T04:05:11;13.57;;;7.47;;
22644;SDS011;11489;50.834;6.752;2023-03-01T04:07:39;13.83;;;6.67;;
22644;SDS011;11489;50.834;6.752;2023-03-01T04:10:07;13.33;;;6.83;;
22644;SDS011;11489;50.834;6.752;2023-03-01T04:12:37;12.77;;;6.90;;
22644;SDS011;11489;50.834;6.752;2023-03-01T04:15:05;14.03;;;7.47;;
22644;SDS011;11489;50.834;6.752;2023-03-01T04:17:40;14.37;;;7.50;;
22644;SDS011;11489;50.834;6.752;2023-03-01T04:20:11;12.30;;;7.00;;
22644;SDS011;11489;50.834;6.752;2023-03-01T04:22:38;11.63;;;7.07;;
22644;SDS011;11489;50.834;6.752;2023-03-01T04:25:05;12.57;;;6.77;;
22644;SDS011;11489;50.834;6.752;2023-03-01T04:27:33;15.97;;;7.10;;
22644;SDS011;11489;50.834;6.752;2023-03-01T04:29:59;13.77;;;7.20;;
22644;SDS011;11489;50.834;6.752;2023-03-01T04:32:25;14.33;;;7.47;;
22644;SDS011;11489;50.834;6.752;2023-03-01T04:34:50;15.10;;;7.90;;
22644;SDS011;11489;50.834;6.752;2023-03-01T04:37:16;15.13;;;7.67;;
22644;SDS011;11489;50.834;6.752;2023-03-01T04:39:41;14.07;;;7.00;;
22644;SDS011;11489;50.834;6.752;2023-03-01T04:42:10;18.10;;;9.00;;
22644;SDS011;11489;50.834;6.752;2023-03-01T04:44:36;16.30;;;8.03;;
22644;SDS011;11489;50.834;6.752;2023-03-01T04:47:02;15.23;;;7.90;;
22644;SDS011;11489;50.834;6.752;2023-03-01T04:49:28;20.20;;;8.43;;
22644;SDS011;11489;50.834;6.752;2023-03-01T04:51:54;16.83;;;8.23;;
22644;SDS011;11489;50.834;6.752;2023-03-01T04:54:19;13.60;;;7.67;;
22644;SDS011;11489;50.834;6.752;2023-03-01T04:56:45;17.20;;;7.97;;
22644;SDS011;11489;50.834;6.752;2023-03-01T04:59:11;13.00;;;7.77;;
22644;SDS011;11489;50.834;6.752;2023-03-01T05:01:37;17.47;;;7.40;;
22644;SDS011;11489;50.834;6.752;2023-03-01T05:04:03;14.63;;;8.00;;
22644;SDS011;11489;50.834;6.752;2023-03-01T05:06:30;17.23;;;7.83;;
22644;SDS011;11489;50.834;6.752;2023-03-01T05:08:56;14.23;;;7.90;;
22644;SDS011;11489;50.834;6.752;2023-03-01T05:11:22;14.57;;;7.77;;
22644;SDS011;11489;50.834;6.752;2023-03-01T05:13:48;14.17;;;7.57;;
22644;SDS011;11489;50.834;6.752;2023-03-01T05:16:19;13.37;;;6.80;;
22644;SDS011;11489;50.834;6.752;2023-03-01T05:18:45;16.53;;;8.87;;
22644;SDS011;11489;50.834;6.752;2023-03-01T05:21:12;15.77;;;8.00;;
22644;SDS011;11489;50.834;6.752;2023-03-01T05:23:41;17.13;;;7.90;;
22644;SDS011;11489;50.834;6.752;2023-03-01T05:26:07;14.10;;;7.90;;
22644;SDS011;11489;50.834;6.752;2023-03-01T05:28:33;15.97;;;8.17;;
22644;SDS011;11489;50.834;6.752;2023-03-01T05:31:00;16.17;;;8.00;;
22644;SDS011;11489;50.834;6.752;2023-03-01T05:33:25;18.57;;;8.13;;
22644;SDS011;11489;50.834;6.752;2023-03-01T05:35:52;14.17;;;8.07;;
22644;SDS011;11489;50.834;6.752;2023-03-01T05:38:18;15.57;;;8.00;;
22644;SDS011;11489;50.834;6.752;2023-03-01T05:40:46;15.67;;;8.17;;
22644;SDS011;11489;50.834;6.752;2023-03-01T05:43:13;14.67;;;7.97;;
22644;SDS011;11489;50.834;6.752;2023-03-01T05:45:40;16.10;;;8.03;;
22644;SDS011;11489;50.834;6.752;2023-03-01T05:48:07;17.83;;;8.63;;
22644;SDS011;11489;50.834;6.752;2023-03-01T05:50:35;16.80;;;8.67;;
22644;SDS011;11489;50.834;6.752;2023-03-01T05:53:05;14.77;;;7.97;;
22644;SDS011;11489;50.834;6.752;2023-03-01T05:55:40;15.13;;;8.23;;
22644;SDS011;11489;50.834;6.752;2023-03-01T05:58:09;19.57;;;8.63;;
22644;SDS011;11489;50.834;6.752;2023-03-01T06:00:36;16.67;;;9.30;;
22644;SDS011;11489;50.834;6.752;2023-03-01T06:03:02;16.47;;;7.70;;
22644;SDS011;11489;50.834;6.752;2023-03-01T06:05:28;20.27;;;9.40;;
22644;SDS011;11489;50.834;6.752;2023-03-01T06:07:54;15.80;;;8.13;;
22644;SDS011;11489;50.834;6.752;2023-03-01T06:10:20;17.30;;;8.47;;
22644;SDS011;11489;50.834;6.752;2023-03-01T06:12:47;16.17;;;8.57;;
22644;SDS011;11489;50.834;6.752;2023-03-01T06:15:13;21.77;;;8.93;;
22644;SDS011;11489;50.834;6.752;2023-03-01T06:17:41;21.40;;;9.13;;
22644;SDS011;11489;50.834;6.752;2023-03-01T06:20:09;20.43;;;9.37;;
22644;SDS011;11489;50.834;6.752;2023-03-01T06:22:43;20.83;;;10.00;;
22644;SDS011;11489;50.834;6.752;2023-03-01T06:25:09;22.40;;;9.10;;
22644;SDS011;11489;50.834;6.752;2023-03-01T06:27:37;18.57;;;10.10;;
22644;SDS011;11489;50.834;6.752;2023-03-01T06:30:03;24.83;;;9.97;;
22644;SDS011;11489;50.834;6.752;2023-03-01T06:32:29;20.53;;;9.77;;
22644;SDS011;11489;50.834;6.752;2023-03-01T06:34:56;17.87;;;9.67;;
22644;SDS011;11489;50.834;6.752;2023-03-01T06:37:23;18.53;;;9.10;;
22644;SDS011;11489;50.834;6.752;2023-03-01T06:39:49;21.47;;;10.67;;
22644;SDS011;11489;50.834;6.752;2023-03-01T06:42:15;20.60;;;10.07;;
22644;SDS011;11489;50.834;6.752;2023-03-01T06:44:41;19.93;;;10.67;;
22644;SDS011;11489;50.834;6.752;2023-03-01T06:47:07;24.33;;;11.43;;
22644;SDS011;11489;50.834;6.752;2023-03-01T06:49:32;25.03;;;11.00;;
22644;SDS011;11489;50.834;6.752;2023-03-01T06:51:58;19.67;;;9.83;;
22644;SDS011;11489;50.834;6.752;2023-03-01T06:54:24;18.77;;;9.87;;
22644;SDS011;11489;50.834;6.752;2023-03-01T06:56:50;21.30;;;9.73;;
22644;SDS011;11489;50.834;6.752;2023-03-01T06:59:16;21.17;;;10.13;;
22644;SDS011;11489;50.834;6.752;2023-03-01T07:01:42;22.00;;;10.63;;
22644;SDS011;11489;50.834;6.752;2023-03-01T07:04:08;23.40;;;11.30;;
22644;SDS011;11489;50.834;6.752;2023-03-01T07:06:35;20.87;;;11.07;;
22644;SDS011;11489;50.834;6.752;2023-03-01T07:09:01;22.10;;;11.33;;
22644;SDS011;11489;50.834;6.752;2023-03-01T07:11:27;20.60;;;10.93;;
22644;SDS011;11489;50.834;6.752;2023-03-01T07:13:53;27.03;;;12.37;;
22644;SDS011;11489;50.834;6.752;2023-03-01T07:16:19;26.10;;;12.10;;
22644;SDS011;11489;50.834;6.752;2023-03-01T07:18:45;25.17;;;12.00;;
22644;SDS011;11489;50.834;6.752;2023-03-01T07:21:12;22.47;;;10.90;;
22644;SDS011;11489;50.834;6.752;2023-03-01T07:23:38;21.50;;;10.17;;
22644;SDS011;11489;50.834;6.752;2023-03-01T07:26:04;22.10;;;10.87;;
22644;SDS011;11489;50.834;6.752;2023-03-01T07:28:30;20.43;;;10.13;;
22644;SDS011;11489;50.834;6.752;2023-03-01T07:31:00;19.63;;;10.53;;
22644;SDS011;11489;50.834;6.752;2023-03-01T07:33:27;21.97;;;10.70;;
22644;SDS011;11489;50.834;6.752;2023-03-01T07:35:59;20.77;;;10.53;;
22644;SDS011;11489;50.834;6.752;2023-03-01T07:38:27;25.07;;;11.70;;
22644;SDS011;11489;50.834;6.752;2023-03-01T07:40:54;23.30;;;10.97;;
22644;SDS011;11489;50.834;6.752;2023-03-01T07:43:24;20.70;;;10.27;;
22644;SDS011;11489;50.834;6.752;2023-03-01T07:45:49;21.97;;;10.33;;
22644;SDS011;11489;50.834;6.752;2023-03-01T07:48:15;20.03;;;10.13;;
22644;SDS011;11489;50.834;6.752;2023-03-01T07:50:41;20.93;;;10.33;;
22644;SDS011;11489;50.834;6.752;2023-03-01T07:53:06;19.97;;;10.37;;
22644;SDS011;11489;50.834;6.752;2023-03-01T07:55:33;21.40;;;10.63;;
22644;SDS011;11489;50.834;6.752;2023-03-01T07:57:58;21.13;;;11.90;;
22644;SDS011;11489;50.834;6.752;2023-03-01T08:00:24;22.83;;;11.40;;
22644;SDS011;11489;50.834;6.752;2023-03-01T08:02:50;28.70;;;12.70;;
22644;SDS011;11489;50.834;6.752;2023-03-01T08:05:15;22.70;;;11.87;;
22644;SDS011;11489;50.834;6.752;2023-03-01T08:07:41;21.53;;;11.10;;
22644;SDS011;11489;50.834;6.752;2023-03-01T08:10:07;21.37;;;11.00;;
22644;SDS011;11489;50.834;6.752;2023-03-01T08:12:33;20.33;;;10.60;;
22644;SDS011;11489;50.834;6.752;2023-03-01T08:14:59;24.80;;;11.77;;
22644;SDS011;11489;50.834;6.752;2023-03-01T08:17:24;24.30;;;11.43;;
22644;SDS011;11489;50.834;6.752;2023-03-01T08:19:50;22.30;;;11.57;;
22644;SDS011;11489;50.834;6.752;2023-03-01T08:22:16;22.03;;;10.93;;
22644;SDS011;11489;50.834;6.752;2023-03-01T08:24:42;24.10;;;12.63;;
22644;SDS011;11489;50.834;6.752;2023-03-01T08:27:07;23.57;;;11.10;;
22644;SDS011;11489;50.834;6.752;2023-03-01T08:29:33;22.33;;;11.80;;
22644;SDS011;11489;50.834;6.752;2023-03-01T08:31:59;25.13;;;11.87;;
22644;SDS011;11489;50.834;6.752;2023-03-01T08:34:25;26.13;;;12.40;;
22644;SDS011;11489;50.834;6.752;2023-03-01T08:36:51;23.50;;;11.43;;
22644;SDS011;11489;50.834;6.752;2023-03-01T08:39:18;24.37;;;11.60;;
22644;SDS011;11489;50.834;6.752;2023-03-01T08:41:45;23.60;;;12.63;;
22644;SDS011;11489;50.834;6.752;2023-03-01T08:44:12;26.63;;;12.33;;
22644;SDS011;11489;50.834;6.752;2023-03-01T08:46:39;25.30;;;11.83;;
22644;SDS011;11489;50.834;6.752;2023-03-01T08:49:13;24.90;;;12.70;;
22644;SDS011;11489;50.834;6.752;2023-03-01T08:51:40;25.93;;;12.63;;
22644;SDS011;11489;50.834;6.752;2023-03-01T08:54:09;28.47;;;12.17;;
22644;SDS011;11489;50.834;6.752;2023-03-01T08:56:37;26.07;;;11.87;;
22644;SDS011;11489;50.834;6.752;2023-03-01T08:59:03;29.20;;;12.10;;
22644;SDS011;11489;50.834;6.752;2023-03-01T09:01:29;23.80;;;10.93;;
22644;SDS011;11489;50.834;6.752;2023-03-01T09:03:54;23.90;;;12.17;;
22644;SDS011;11489;50.834;6.752;2023-03-01T09:06:20;24.30;;;11.83;;
22644;SDS011;11489;50.834;6.752;2023-03-01T09:08:47;24.40;;;12.07;;
22644;SDS011;11489;50.834;6.752;2023-03-01T09:11:15;22.97;;;12.27;;
22644;SDS011;11489;50.834;6.752;2023-03-01T09:13:43;24.43;;;13.10;;
22644;SDS011;11489;50.834;6.752;2023-03-01T09:16:11;28.43;;;14.17;;
22644;SDS011;11489;50.834;6.752;2023-03-01T09:18:38;28.30;;;12.77;;
22644;SDS011;11489;50.834;6.752;2023-03-01T09:21:11;25.00;;;13.03;;
22644;SDS011;11489;50.834;6.752;2023-03-01T09:23:45;23.70;;;12.33;;
22644;SDS011;11489;50.834;6.752;2023-03-01T09:26:13;21.30;;;12.27;;
22644;SDS011;11489;50.834;6.752;2023-03-01T09:28:41;27.30;;;13.50;;
22644;SDS011;11489;50.834;6.752;2023-03-01T09:31:09;25.70;;;12.77;;
22644;SDS011;11489;50.834;6.752;2023-03-01T09:33:37;26.40;;;12.73;;
22644;SDS011;11489;50.834;6.752;2023-03-01T09:36:05;26.40;;;13.60;;
22644;SDS011;11489;50.834;6.752;2023-03-01T09:38:32;26.90;;;12.80;;
22644;SDS011;11489;50.834;6.752;2023-03-01T09:40:59;24.20;;;13.83;;
22644;SDS011;11489;50.834;6.752;2023-03-01T09:43:35;26.67;;;13.60;;
22644;SDS011;11489;50.834;6.752;2023-03-01T09:46:10;26.50;;;14.40;;
22644;SDS011;11489;50.834;6.752;2023-03-01T09:48:46;25.67;;;13.80;;
22644;SDS011;11489;50.834;6.752;2023-03-01T09:51:22;28.60;;;14.87;;
22644;SDS011;11489;50.834;6.752;2023-03-01T09:53:52;34.63;;;16.93;;
22644;SDS011;11489;50.834;6.752;2023-03-01T09:56:20;33.30;;;15.47;;
22644;SDS011;11489;50.834;6.752;2023-03-01T10:07:12;26.67;;;14.13;;
22644;SDS011;11489;50.834;6.752;2023-03-01T10:09:55;26.08;;;13.90;;
22644;SDS011;11489;50.834;6.752;2023-03-01T10:12:23;25.70;;;15.10;;
22644;SDS011;11489;50.834;6.752;2023-03-01T10:20:10;28.42;;;15.60;;
22644;SDS011;11489;50.834;6.752;2023-03-01T10:22:42;26.52;;;13.77;;
22644;SDS011;11489;50.834;6.752;2023-03-01T10:25:12;26.80;;;14.63;;
22644;SDS011;11489;50.834;6.752;2023-03-01T10:32:41;25.85;;;13.82;;
22644;SDS011;11489;50.834;6.752;2023-03-01T10:37:58;22.55;;;13.52;;
22644;SDS011;11489;50.834;6.752;2023-03-01T10:40:32;25.08;;;13.23;;
22644;SDS011;11489;50.834;6.752;2023-03-01T10:43:02;23.67;;;13.77;;
22644;SDS011;11489;50.834;6.752;2023-03-01T10:48:02;21.70;;;13.52;;
22644;SDS011;11489;50.834;6.752;2023-03-01T10:50:28;22.10;;;13.05;;
22644;SDS011;11489;50.834;6.752;2023-03-01T10:52:55;22.42;;;13.40;;
22644;SDS011;11489;50.834;6.752;2023-03-01T11:00:33;21.40;;;12.90;;
22644;SDS011;11489;50.834;6.752;2023-03-01T11:03:16;22.80;;;13.23;;
22644;SDS011;11489;50.834;6.752;2023-03-01T11:05:55;22.33;;;12.88;;
22644;SDS011;11489;50.834;6.752;2023-03-01T11:16:37;20.45;;;12.35;;
22644;SDS011;11489;50.834;6.752;2023-03-01T11:21:37;23.15;;;13.55;;
22644;SDS011;11489;50.834;6.752;2023-03-01T11:24:19;24.40;;;14.27;;
22644;SDS011;11489;50.834;6.752;2023-03-01T11:30:34;25.25;;;14.45;;
22644;SDS011;11489;50.834;6.752;2023-03-01T11:35:34;20.77;;;12.85;;
22644;SDS011;11489;50.834;6.752;2023-03-01T11:40:46;23.30;;;13.60;;
22644;SDS011;11489;50.834;6.752;2023-03-01T11:46:20;23.02;;;13.00;;
22644;SDS011;11489;50.834;6.752;2023-03-01T11:54:27;26.00;;;14.98;;
22644;SDS011;11489;50.834;6.752;2023-03-01T12:02:53;22.70;;;13.95;;
22644;SDS011;11489;50.834;6.752;2023-03-01T12:16:46;25.50;;;14.77;;
22644;SDS011;11489;50.834;6.752;2023-03-01T12:35:48;22.83;;;13.68;;
22644;SDS011;11489;50.834;6.752;2023-03-01T12:38:50;20.00;;;12.57;;
22644;SDS011;11489;50.834;6.752;2023-03-01T12:49:44;19.23;;;11.75;;
22644;SDS011;11489;50.834;6.752;2023-03-01T12:52:41;19.45;;;11.73;;
22644;SDS011;11489;50.834;6.752;2023-03-01T12:55:21;20.15;;;11.93;;
22644;SDS011;11489;50.834;6.752;2023-03-01T12:58:35;17.52;;;11.30;;
22644;SDS011;11489;50.834;6.752;2023-03-01T13:01:34;19.38;;;11.43;;
22644;SDS011;11489;50.834;6.752;2023-03-01T13:06:38;21.80;;;10.77;;
22644;SDS011;11489;50.834;6.752;2023-03-01T13:11:46;23.73;;;10.93;;
22644;SDS011;11489;50.834;6.752;2023-03-01T13:16:50;17.25;;;10.35;;
22644;SDS011;11489;50.834;6.752;2023-03-01T13:19:27;20.20;;;10.48;;
22644;SDS011;11489;50.834;6.752;2023-03-01T13:21:57;16.88;;;10.30;;
22644;SDS011;11489;50.834;6.752;2023-03-01T13:24:28;17.92;;;10.77;;
22644;SDS011;11489;50.834;6.752;2023-03-01T13:29:54;18.92;;;11.27;;
22644;SDS011;11489;50.834;6.752;2023-03-01T13:32:34;25.63;;;11.57;;
22644;SDS011;11489;50.834;6.752;2023-03-01T13:37:40;20.05;;;11.23;;
22644;SDS011;11489;50.834;6.752;2023-03-01T13:42:43;18.50;;;10.63;;
22644;SDS011;11489;50.834;6.752;2023-03-01T13:48:10;19.52;;;10.70;;
22644;SDS011;11489;50.834;6.752;2023-03-01T13:50:46;19.08;;;10.90;;
22644;SDS011;11489;50.834;6.752;2023-03-01T13:53:17;20.25;;;11.07;;
22644;SDS011;11489;50.834;6.752;2023-03-01T13:55:47;17.77;;;11.23;;
22644;SDS011;11489;50.834;6.752;2023-03-01T13:58:21;17.42;;;10.85;;
22644;SDS011;11489;50.834;6.752;2023-03-01T14:00:57;18.10;;;10.77;;
22644;SDS011;11489;50.834;6.752;2023-03-01T14:03:31;16.05;;;10.10;;
22644;SDS011;11489;50.834;6.752;2023-03-01T14:08:31;16.42;;;9.73;;
22644;SDS011;11489;50.834;6.752;2023-03-01T14:19:08;19.45;;;10.60;;
22644;SDS011;11489;50.834;6.752;2023-03-01T14:21:42;17.98;;;11.13;;
22644;SDS011;11489;50.834;6.752;2023-03-01T14:24:18;18.52;;;11.38;;
22644;SDS011;11489;50.834;6.752;2023-03-01T14:26:46;21.05;;;12.40;;
22644;SDS011;11489;50.834;6.752;2023-03-01T14:32:07;21.10;;;12.57;;
22644;SDS011;11489;50.834;6.752;2023-03-01T14:34:44;25.52;;;12.70;;
22644;SDS011;11489;50.834;6.752;2023-03-01T14:37:17;22.67;;;13.05;;
22644;SDS011;11489;50.834;6.752;2023-03-01T14:39:43;18.63;;;12.45;;
22644;SDS011;11489;50.834;6.752;2023-03-01T14:42:09;21.90;;;12.18;;
22644;SDS011;11489;50.834;6.752;2023-03-01T14:44:35;19.50;;;11.73;;
22644;SDS011;11489;50.834;6.752;2023-03-01T14:47:02;19.38;;;11.73;;
22644;SDS011;11489;50.834;6.752;2023-03-01T14:49:30;20.83;;;11.52;;
22644;SDS011;11489;50.834;6.752;2023-03-01T14:52:04;19.13;;;11.52;;
22644;SDS011;11489;50.834;6.752;2023-03-01T14:54:39;18.00;;;10.80;;
22644;SDS011;11489;50.834;6.752;2023-03-01T14:57:18;22.13;;;11.48;;
22644;SDS011;11489;50.834;6.752;2023-03-01T14:59:47;18.42;;;11.25;;
22644;SDS011;11489;50.834;6.752;2023-03-01T15:02:15;17.98;;;10.15;;
22644;SDS011;11489;50.834;6.752;2023-03-01T15:04:49;16.77;;;10.32;;
22644;SDS011;11489;50.834;6.752;2023-03-01T15:07:26;17.58;;;10.20;;
22644;SDS011;11489;50.834;6.752;2023-03-01T15:09:56;18.15;;;9.90;;
22644;SDS011;11489;50.834;6.752;2023-03-01T15:12:24;16.55;;;9.55;;
22644;SDS011;11489;50.834;6.752;2023-03-01T15:14:50;16.95;;;9.68;;
22644;SDS011;11489;50.834;6.752;2023-03-01T15:17:36;15.18;;;9.68;;
22644;SDS011;11489;50.834;6.752;2023-03-01T15:20:04;17.10;;;9.65;;
22644;SDS011;11489;50.834;6.752;2023-03-01T15:22:43;16.17;;;9.75;;
22644;SDS011;11489;50.834;6.752;2023-03-01T15:25:14;17.45;;;10.27;;
22644;SDS011;11489;50.834;6.752;2023-03-01T15:27:45;17.15;;;9.85;;
22644;SDS011;11489;50.834;6.752;2023-03-01T15:32:46;15.85;;;9.35;;
22644;SDS011;11489;50.834;6.752;2023-03-01T15:38:23;16.45;;;10.00;;
22644;SDS011;11489;50.834;6.752;2023-03-01T15:41:05;17.55;;;10.73;;
22644;SDS011;11489;50.834;6.752;2023-03-01T15:43:47;18.00;;;10.07;;
22644;SDS011;11489;50.834;6.752;2023-03-01T15:52:06;17.85;;;10.13;;
22644;SDS011;11489;50.834;6.752;2023-03-01T15:54:53;18.45;;;10.52;;
22644;SDS011;11489;50.834;6.752;2023-03-01T15:57:30;17.88;;;10.73;;
22644;SDS011;11489;50.834;6.752;2023-03-01T15:59:56;17.08;;;10.30;;
22644;SDS011;11489;50.834;6.752;2023-03-01T16:02:22;16.17;;;10.18;;
22644;SDS011;11489;50.834;6.752;2023-03-01T16:04:49;16.92;;;9.70;;
22644;SDS011;11489;50.834;6.752;2023-03-01T16:07:15;18.55;;;9.95;;
22644;SDS011;11489;50.834;6.752;2023-03-01T16:09:41;19.13;;;10.13;;
22644;SDS011;11489;50.834;6.752;2023-03-01T16:12:15;18.40;;;9.73;;
22644;SDS011;11489;50.834;6.752;2023-03-01T16:14:41;15.70;;;9.55;;
22644;SDS011;11489;50.834;6.752;2023-03-01T16:17:07;15.57;;;8.98;;
22644;SDS011;11489;50.834;6.752;2023-03-01T16:19:35;17.67;;;9.18;;
22644;SDS011;11489;50.834;6.752;2023-03-01T16:22:02;14.50;;;8.18;;
22644;SDS011;11489;50.834;6.752;2023-03-01T16:24:28;15.85;;;9.52;;
22644;SDS011;11489;50.834;6.752;2023-03-01T16:26:55;14.60;;;8.80;;
22644;SDS011;11489;50.834;6.752;2023-03-01T16:29:20;19.23;;;9.82;;
22644;SDS011;11489;50.834;6.752;2023-03-01T16:31:46;15.45;;;8.43;;
22644;SDS011;11489;50.834;6.752;2023-03-01T16:34:12;18.05;;;9.23;;
22644;SDS011;11489;50.834;6.752;2023-03-01T16:36:38;18.08;;;9.07;;
22644;SDS011;11489;50.834;6.752;2023-03-01T16:39:04;13.80;;;8.98;;
22644;SDS011;11489;50.834;6.752;2023-03-01T16:41:29;21.48;;;11.52;;
22644;SDS011;11489;50.834;6.752;2023-03-01T16:43:55;24.40;;;12.32;;
22644;SDS011;11489;50.834;6.752;2023-03-01T16:46:22;21.55;;;10.85;;
22644;SDS011;11489;50.834;6.752;2023-03-01T16:48:50;25.75;;;11.15;;
22644;SDS011;11489;50.834;6.752;2023-03-01T16:51:16;19.52;;;10.25;;
22644;SDS011;11489;50.834;6.752;2023-03-01T16:53:42;22.77;;;10.38;;
22644;SDS011;11489;50.834;6.752;2023-03-01T16:56:09;19.02;;;9.40;;
22644;SDS011;11489;50.834;6.752;2023-03-01T16:58:36;15.48;;;8.80;;
22644;SDS011;11489;50.834;6.752;2023-03-01T17:01:05;16.48;;;8.57;;
22644;SDS011;11489;50.834;6.752;2023-03-01T17:03:50;18.27;;;9.15;;
22644;SDS011;11489;50.834;6.752;2023-03-01T17:06:18;14.75;;;8.77;;
22644;SDS011;11489;50.834;6.752;2023-03-01T17:08:47;18.90;;;9.00;;
22644;SDS011;11489;50.834;6.752;2023-03-01T17:11:14;18.40;;;8.80;;
22644;SDS011;11489;50.834;6.752;2023-03-01T17:13:41;15.48;;;8.73;;
22644;SDS011;11489;50.834;6.752;2023-03-01T17:16:08;17.52;;;8.68;;